sensor_id;sensor_type;location;lat;lon;timestamp;pressure;altitude;pressure_sealevel;temperature
15607;BMP180;7865;50.918;4.510;2022-12-07T00:04:45;101352.00;;;4.00
15607;BMP180;7865;50.918;4.510;2022-12-07T00:09:47;101345.00;;;3.80
15607;BMP180;7865;50.918;4.510;2022-12-07T00:14:49;101355.00;;;3.70
15607;BMP180;7865;50.918;4.510;2022-12-07T00:19:51;101350.00;;;3.60
15607;BMP180;7865;50.918;4.510;2022-12-07T00:24:53;101345.00;;;3.50
15607;BMP180;7865;50.918;4.510;2022-12-07T00:29:55;101347.00;;;3.50
15607;BMP180;7865;50.918;4.510;2022-12-07T00:34:57;101336.00;;;3.50
15607;BMP180;7865;50.918;4.510;2022-12-07T00:39:58;101342.00;;;3.40
15607;BMP180;7865;50.918;4.510;2022-12-07T00:45:01;101338.00;;;3.40
15607;BMP180;7865;50.918;4.510;2022-12-07T00:50:03;101330.00;;;3.30
15607;BMP180;7865;50.918;4.510;2022-12-07T00:55:05;101331.00;;;3.30
15607;BMP180;7865;50.918;4.510;2022-12-07T01:00:07;101323.00;;;3.20
15607;BMP180;7865;50.918;4.510;2022-12-07T01:05:09;101321.00;;;3.10
15607;BMP180;7865;50.918;4.510;2022-12-07T01:10:12;101322.00;;;3.10
15607;BMP180;7865;50.918;4.510;2022-12-07T01:15:14;101328.00;;;3.00
15607;BMP180;7865;50.918;4.510;2022-12-07T01:20:16;101316.00;;;2.90
15607;BMP180;7865;50.918;4.510;2022-12-07T01:25:18;101315.00;;;2.90
15607;BMP180;7865;50.918;4.510;2022-12-07T01:30:20;101330.00;;;3.00
15607;BMP180;7865;50.918;4.510;2022-12-07T01:35:23;101336.00;;;3.10
15607;BMP180;7865;50.918;4.510;2022-12-07T01:40:25;101321.00;;;3.10
15607;BMP180;7865;50.918;4.510;2022-12-07T01:50:33;101341.00;;;3.30
15607;BMP180;7865;50.918;4.510;2022-12-07T01:55:37;101339.00;;;3.40
15607;BMP180;7865;50.918;4.510;2022-12-07T02:00:41;101329.00;;;3.50
15607;BMP180;7865;50.918;4.510;2022-12-07T02:05:43;101330.00;;;3.60
15607;BMP180;7865;50.918;4.510;2022-12-07T02:10:46;101330.00;;;3.60
15607;BMP180;7865;50.918;4.510;2022-12-07T02:37:42;101318.00;;;3.60
15607;BMP180;7865;50.918;4.510;2022-12-07T02:42:50;101312.00;;;3.60
15607;BMP180;7865;50.918;4.510;2022-12-07T02:47:56;101312.00;;;3.40
15607;BMP180;7865;50.918;4.510;2022-12-07T02:53:00;101314.00;;;3.30
15607;BMP180;7865;50.918;4.510;2022-12-07T03:03:30;101311.00;;;3.00
15607;BMP180;7865;50.918;4.510;2022-12-07T03:08:46;101312.00;;;3.00
15607;BMP180;7865;50.918;4.510;2022-12-07T03:14:02;101321.00;;;3.10
15607;BMP180;7865;50.918;4.510;2022-12-07T03:19:13;101309.00;;;3.20
15607;BMP180;7865;50.918;4.510;2022-12-07T03:24:26;101318.00;;;3.40
15607;BMP180;7865;50.918;4.510;2022-12-07T03:29:33;101312.00;;;3.50
15607;BMP180;7865;50.918;4.510;2022-12-07T03:34:44;101301.00;;;3.60
15607;BMP180;7865;50.918;4.510;2022-12-07T03:45:05;101293.00;;;3.40
15607;BMP180;7865;50.918;4.510;2022-12-07T03:50:14;101292.00;;;3.30
15607;BMP180;7865;50.918;4.510;2022-12-07T03:55:26;101295.00;;;3.20
15607;BMP180;7865;50.918;4.510;2022-12-07T04:00:29;101286.00;;;3.10
15607;BMP180;7865;50.918;4.510;2022-12-07T04:05:31;101285.00;;;3.00
15607;BMP180;7865;50.918;4.510;2022-12-07T04:10:33;101287.00;;;2.90
15607;BMP180;7865;50.918;4.510;2022-12-07T04:15:35;101294.00;;;2.80
15607;BMP180;7865;50.918;4.510;2022-12-07T04:20:37;101281.00;;;2.70
15607;BMP180;7865;50.918;4.510;2022-12-07T04:25:40;101282.00;;;2.60
15607;BMP180;7865;50.918;4.510;2022-12-07T04:30:42;101289.00;;;2.40
15607;BMP180;7865;50.918;4.510;2022-12-07T04:35:43;101302.00;;;2.40
15607;BMP180;7865;50.918;4.510;2022-12-07T04:40:45;101296.00;;;2.20
15607;BMP180;7865;50.918;4.510;2022-12-07T04:45:48;101285.00;;;2.20
15607;BMP180;7865;50.918;4.510;2022-12-07T04:50:50;101292.00;;;2.30
15607;BMP180;7865;50.918;4.510;2022-12-07T04:55:52;101278.00;;;2.40
15607;BMP180;7865;50.918;4.510;2022-12-07T05:00:54;101287.00;;;2.60
15607;BMP180;7865;50.918;4.510;2022-12-07T05:05:57;101285.00;;;2.70
15607;BMP180;7865;50.918;4.510;2022-12-07T05:10:59;101287.00;;;2.70
15607;BMP180;7865;50.918;4.510;2022-12-07T05:16:02;101280.00;;;2.60
15607;BMP180;7865;50.918;4.510;2022-12-07T05:21:04;101274.00;;;2.70
15607;BMP180;7865;50.918;4.510;2022-12-07T05:26:06;101289.00;;;2.80
15607;BMP180;7865;50.918;4.510;2022-12-07T05:31:08;101292.00;;;2.90
15607;BMP180;7865;50.918;4.510;2022-12-07T05:36:10;101286.00;;;2.90
15607;BMP180;7865;50.918;4.510;2022-12-07T05:41:14;101283.00;;;3.00
15607;BMP180;7865;50.918;4.510;2022-12-07T05:46:35;101282.00;;;3.10
15607;BMP180;7865;50.918;4.510;2022-12-07T05:51:37;101278.00;;;3.20
15607;BMP180;7865;50.918;4.510;2022-12-07T05:56:39;101282.00;;;3.20
15607;BMP180;7865;50.918;4.510;2022-12-07T06:01:42;101279.00;;;3.20
15607;BMP180;7865;50.918;4.510;2022-12-07T06:06:44;101275.00;;;3.30
15607;BMP180;7865;50.918;4.510;2022-12-07T06:11:46;101272.00;;;3.30
15607;BMP180;7865;50.918;4.510;2022-12-07T06:17:07;101271.00;;;3.40
15607;BMP180;7865;50.918;4.510;2022-12-07T06:22:10;101261.00;;;3.40
15607;BMP180;7865;50.918;4.510;2022-12-07T06:27:13;101262.00;;;3.40
15607;BMP180;7865;50.918;4.510;2022-12-07T06:32:15;101252.00;;;3.50
15607;BMP180;7865;50.918;4.510;2022-12-07T06:37:17;101260.00;;;3.40
15607;BMP180;7865;50.918;4.510;2022-12-07T06:42:19;101271.00;;;3.40
15607;BMP180;7865;50.918;4.510;2022-12-07T06:47:21;101283.00;;;3.40
15607;BMP180;7865;50.918;4.510;2022-12-07T06:52:41;101281.00;;;3.40
15607;BMP180;7865;50.918;4.510;2022-12-07T06:57:44;101282.00;;;3.40
15607;BMP180;7865;50.918;4.510;2022-12-07T07:02:46;101292.00;;;3.50
15607;BMP180;7865;50.918;4.510;2022-12-07T07:07:48;101294.00;;;3.50
15607;BMP180;7865;50.918;4.510;2022-12-07T07:13:10;101302.00;;;3.60
15607;BMP180;7865;50.918;4.510;2022-12-07T07:18:12;101301.00;;;3.60
15607;BMP180;7865;50.918;4.510;2022-12-07T07:23:14;101304.00;;;3.60
15607;BMP180;7865;50.918;4.510;2022-12-07T07:28:16;101285.00;;;3.60
15607;BMP180;7865;50.918;4.510;2022-12-07T07:33:19;101279.00;;;3.60
15607;BMP180;7865;50.918;4.510;2022-12-07T07:38:20;101286.00;;;3.50
15607;BMP180;7865;50.918;4.510;2022-12-07T07:43:22;101296.00;;;3.30
15607;BMP180;7865;50.918;4.510;2022-12-07T07:48:24;101293.00;;;3.20
15607;BMP180;7865;50.918;4.510;2022-12-07T07:53:26;101293.00;;;3.00
15607;BMP180;7865;50.918;4.510;2022-12-07T07:58:28;101290.00;;;2.90
15607;BMP180;7865;50.918;4.510;2022-12-07T08:03:30;101293.00;;;2.90
15607;BMP180;7865;50.918;4.510;2022-12-07T08:08:33;101303.00;;;2.80
15607;BMP180;7865;50.918;4.510;2022-12-07T08:13:35;101293.00;;;2.80
15607;BMP180;7865;50.918;4.510;2022-12-07T08:18:38;101302.00;;;2.80
15607;BMP180;7865;50.918;4.510;2022-12-07T08:23:41;101293.00;;;2.90
15607;BMP180;7865;50.918;4.510;2022-12-07T08:28:43;101308.00;;;3.10
15607;BMP180;7865;50.918;4.510;2022-12-07T08:33:47;101312.00;;;3.20
15607;BMP180;7865;50.918;4.510;2022-12-07T08:38:50;101304.00;;;3.40
15607;BMP180;7865;50.918;4.510;2022-12-07T08:44:11;101306.00;;;3.80
15607;BMP180;7865;50.918;4.510;2022-12-07T08:49:20;101301.00;;;4.40
15607;BMP180;7865;50.918;4.510;2022-12-07T08:54:23;101304.00;;;4.80
15607;BMP180;7865;50.918;4.510;2022-12-07T08:59:26;101299.00;;;4.80
15607;BMP180;7865;50.918;4.510;2022-12-07T09:04:29;101305.00;;;4.80
15607;BMP180;7865;50.918;4.510;2022-12-07T09:09:31;101299.00;;;4.80
15607;BMP180;7865;50.918;4.510;2022-12-07T09:14:33;101310.00;;;5.00
15607;BMP180;7865;50.918;4.510;2022-12-07T09:19:35;101306.00;;;5.50
15607;BMP180;7865;50.918;4.510;2022-12-07T09:24:37;101306.00;;;5.60
15607;BMP180;7865;50.918;4.510;2022-12-07T09:29:39;101306.00;;;5.50
15607;BMP180;7865;50.918;4.510;2022-12-07T09:34:41;101307.00;;;5.40
15607;BMP180;7865;50.918;4.510;2022-12-07T09:39:44;101313.00;;;5.40
15607;BMP180;7865;50.918;4.510;2022-12-07T09:44:51;101305.00;;;5.60
15607;BMP180;7865;50.918;4.510;2022-12-07T09:49:55;101302.00;;;5.70
15607;BMP180;7865;50.918;4.510;2022-12-07T09:55:01;101294.00;;;5.90
15607;BMP180;7865;50.918;4.510;2022-12-07T10:00:25;101285.00;;;5.90
15607;BMP180;7865;50.918;4.510;2022-12-07T10:05:38;101277.00;;;5.90
15607;BMP180;7865;50.918;4.510;2022-12-07T10:10:41;101271.00;;;5.90
15607;BMP180;7865;50.918;4.510;2022-12-07T10:15:53;101269.00;;;6.40
15607;BMP180;7865;50.918;4.510;2022-12-07T10:26:38;101263.00;;;6.60
15607;BMP180;7865;50.918;4.510;2022-12-07T10:31:42;101262.00;;;6.40
15607;BMP180;7865;50.918;4.510;2022-12-07T10:36:44;101264.00;;;6.90
15607;BMP180;7865;50.918;4.510;2022-12-07T10:41:54;101266.00;;;7.10
15607;BMP180;7865;50.918;4.510;2022-12-07T10:47:07;101255.00;;;7.20
15607;BMP180;7865;50.918;4.510;2022-12-07T10:58:08;101263.00;;;7.10
15607;BMP180;7865;50.918;4.510;2022-12-07T11:19:40;101225.00;;;8.50
15607;BMP180;7865;50.918;4.510;2022-12-07T11:24:57;101212.00;;;8.20
15607;BMP180;7865;50.918;4.510;2022-12-07T11:35:45;101222.00;;;7.40
15607;BMP180;7865;50.918;4.510;2022-12-07T11:40:50;101219.00;;;7.80
15607;BMP180;7865;50.918;4.510;2022-12-07T11:46:00;101204.00;;;8.00
15607;BMP180;7865;50.918;4.510;2022-12-07T11:51:06;101205.00;;;7.80
15607;BMP180;7865;50.918;4.510;2022-12-07T11:56:16;101198.00;;;8.60
15607;BMP180;7865;50.918;4.510;2022-12-07T12:06:44;101185.00;;;9.20
15607;BMP180;7865;50.918;4.510;2022-12-07T12:17:59;101167.00;;;9.30
15607;BMP180;7865;50.918;4.510;2022-12-07T12:23:10;101163.00;;;8.80
15607;BMP180;7865;50.918;4.510;2022-12-07T12:33:53;101154.00;;;9.40
15607;BMP180;7865;50.918;4.510;2022-12-07T12:44:01;101142.00;;;9.30
15607;BMP180;7865;50.918;4.510;2022-12-07T12:54:27;101142.00;;;9.70
15607;BMP180;7865;50.918;4.510;2022-12-07T12:59:31;101143.00;;;9.70
15607;BMP180;7865;50.918;4.510;2022-12-07T13:04:47;101146.00;;;9.20
15607;BMP180;7865;50.918;4.510;2022-12-07T13:09:50;101145.00;;;8.80
15607;BMP180;7865;50.918;4.510;2022-12-07T13:14:58;101136.00;;;8.50
15607;BMP180;7865;50.918;4.510;2022-12-07T13:25:30;101116.00;;;8.00
15607;BMP180;7865;50.918;4.510;2022-12-07T13:30:43;101121.00;;;8.10
15607;BMP180;7865;50.918;4.510;2022-12-07T13:35:46;101118.00;;;8.30
15607;BMP180;7865;50.918;4.510;2022-12-07T13:41:03;101103.00;;;8.30
15607;BMP180;7865;50.918;4.510;2022-12-07T13:46:07;101095.00;;;8.30
15607;BMP180;7865;50.918;4.510;2022-12-07T13:51:21;101088.00;;;8.20
15607;BMP180;7865;50.918;4.510;2022-12-07T13:56:27;101093.00;;;7.80
15607;BMP180;7865;50.918;4.510;2022-12-07T14:01:33;101091.00;;;7.40
15607;BMP180;7865;50.918;4.510;2022-12-07T14:06:35;101090.00;;;7.10
15607;BMP180;7865;50.918;4.510;2022-12-07T14:11:37;101102.00;;;6.80
15607;BMP180;7865;50.918;4.510;2022-12-07T14:16:39;101094.00;;;6.60
15607;BMP180;7865;50.918;4.510;2022-12-07T14:21:41;101093.00;;;6.00
15607;BMP180;7865;50.918;4.510;2022-12-07T14:26:48;101102.00;;;5.80
15607;BMP180;7865;50.918;4.510;2022-12-07T14:31:52;101105.00;;;5.70
15607;BMP180;7865;50.918;4.510;2022-12-07T14:36:54;101094.00;;;5.70
15607;BMP180;7865;50.918;4.510;2022-12-07T14:41:56;101096.00;;;5.70
15607;BMP180;7865;50.918;4.510;2022-12-07T14:46:58;101085.00;;;5.70
15607;BMP180;7865;50.918;4.510;2022-12-07T14:52:23;101080.00;;;5.80
15607;BMP180;7865;50.918;4.510;2022-12-07T14:57:46;101065.00;;;5.70
15607;BMP180;7865;50.918;4.510;2022-12-07T15:02:48;101066.00;;;5.50
15607;BMP180;7865;50.918;4.510;2022-12-07T15:07:51;101068.00;;;5.40
15607;BMP180;7865;50.918;4.510;2022-12-07T15:12:53;101065.00;;;5.40
15607;BMP180;7865;50.918;4.510;2022-12-07T15:17:55;101058.00;;;5.30
15607;BMP180;7865;50.918;4.510;2022-12-07T15:22:58;101050.00;;;5.20
15607;BMP180;7865;50.918;4.510;2022-12-07T15:28:00;101043.00;;;5.20
15607;BMP180;7865;50.918;4.510;2022-12-07T15:33:02;101050.00;;;5.20
15607;BMP180;7865;50.918;4.510;2022-12-07T15:38:03;101045.00;;;5.20
15607;BMP180;7865;50.918;4.510;2022-12-07T15:43:05;101041.00;;;5.20
15607;BMP180;7865;50.918;4.510;2022-12-07T15:48:29;101038.00;;;5.10
15607;BMP180;7865;50.918;4.510;2022-12-07T15:53:31;101036.00;;;5.10
15607;BMP180;7865;50.918;4.510;2022-12-07T15:58:33;101036.00;;;5.10
15607;BMP180;7865;50.918;4.510;2022-12-07T16:03:35;101033.00;;;5.10
15607;BMP180;7865;50.918;4.510;2022-12-07T16:08:42;101027.00;;;5.10
15607;BMP180;7865;50.918;4.510;2022-12-07T16:13:45;101034.00;;;5.10
15607;BMP180;7865;50.918;4.510;2022-12-07T16:18:47;101024.00;;;5.00
15607;BMP180;7865;50.918;4.510;2022-12-07T16:23:49;101032.00;;;5.00
15607;BMP180;7865;50.918;4.510;2022-12-07T16:28:52;101014.00;;;5.00
15607;BMP180;7865;50.918;4.510;2022-12-07T16:33:57;101012.00;;;5.10
15607;BMP180;7865;50.918;4.510;2022-12-07T16:38:59;101022.00;;;5.00
15607;BMP180;7865;50.918;4.510;2022-12-07T16:44:04;101017.00;;;5.00
15607;BMP180;7865;50.918;4.510;2022-12-07T16:49:06;101024.00;;;5.00
15607;BMP180;7865;50.918;4.510;2022-12-07T16:54:12;101013.00;;;5.00
15607;BMP180;7865;50.918;4.510;2022-12-07T16:59:14;101017.00;;;5.00
15607;BMP180;7865;50.918;4.510;2022-12-07T17:04:16;101007.00;;;5.00
15607;BMP180;7865;50.918;4.510;2022-12-07T17:09:18;101003.00;;;5.00
15607;BMP180;7865;50.918;4.510;2022-12-07T17:14:22;101000.00;;;4.90
15607;BMP180;7865;50.918;4.510;2022-12-07T17:19:43;100986.00;;;4.90
15607;BMP180;7865;50.918;4.510;2022-12-07T17:24:45;100989.00;;;4.70
15607;BMP180;7865;50.918;4.510;2022-12-07T17:29:47;100985.00;;;4.70
15607;BMP180;7865;50.918;4.510;2022-12-07T17:34:49;100983.00;;;4.60
15607;BMP180;7865;50.918;4.510;2022-12-07T17:39:52;100982.00;;;4.70
15607;BMP180;7865;50.918;4.510;2022-12-07T17:44:53;100974.00;;;4.70
15607;BMP180;7865;50.918;4.510;2022-12-07T17:49:55;100970.00;;;4.70
15607;BMP180;7865;50.918;4.510;2022-12-07T17:55:04;100963.00;;;4.70
15607;BMP180;7865;50.918;4.510;2022-12-07T18:00:07;100964.00;;;4.70
15607;BMP180;7865;50.918;4.510;2022-12-07T18:05:13;100956.00;;;4.60
15607;BMP180;7865;50.918;4.510;2022-12-07T18:10:15;100953.00;;;4.50
15607;BMP180;7865;50.918;4.510;2022-12-07T18:15:17;100953.00;;;4.40
15607;BMP180;7865;50.918;4.510;2022-12-07T18:20:19;100951.00;;;4.30
15607;BMP180;7865;50.918;4.510;2022-12-07T18:25:21;100960.00;;;4.20
15607;BMP180;7865;50.918;4.510;2022-12-07T18:30:23;100949.00;;;4.20
15607;BMP180;7865;50.918;4.510;2022-12-07T18:35:46;100952.00;;;4.30
15607;BMP180;7865;50.918;4.510;2022-12-07T18:40:48;100950.00;;;4.30
15607;BMP180;7865;50.918;4.510;2022-12-07T18:45:50;100942.00;;;4.30
15607;BMP180;7865;50.918;4.510;2022-12-07T18:51:01;100935.00;;;4.20
15607;BMP180;7865;50.918;4.510;2022-12-07T18:56:11;100928.00;;;4.10
15607;BMP180;7865;50.918;4.510;2022-12-07T19:01:13;100932.00;;;4.10
15607;BMP180;7865;50.918;4.510;2022-12-07T19:06:15;100932.00;;;4.10
15607;BMP180;7865;50.918;4.510;2022-12-07T19:11:24;100932.00;;;4.20
15607;BMP180;7865;50.918;4.510;2022-12-07T19:16:44;100921.00;;;4.30
15607;BMP180;7865;50.918;4.510;2022-12-07T19:21:47;100909.00;;;4.40
15607;BMP180;7865;50.918;4.510;2022-12-07T19:26:52;100895.00;;;4.40
15607;BMP180;7865;50.918;4.510;2022-12-07T19:31:54;100900.00;;;4.40
15607;BMP180;7865;50.918;4.510;2022-12-07T19:36:57;100890.00;;;4.40
15607;BMP180;7865;50.918;4.510;2022-12-07T19:41:59;100899.00;;;4.40
15607;BMP180;7865;50.918;4.510;2022-12-07T19:47:02;100889.00;;;4.40
15607;BMP180;7865;50.918;4.510;2022-12-07T19:52:07;100886.00;;;4.40
15607;BMP180;7865;50.918;4.510;2022-12-07T19:57:09;100886.00;;;4.30
15607;BMP180;7865;50.918;4.510;2022-12-07T20:02:15;100884.00;;;4.30
15607;BMP180;7865;50.918;4.510;2022-12-07T20:07:18;100889.00;;;4.30
15607;BMP180;7865;50.918;4.510;2022-12-07T20:12:19;100887.00;;;4.30
15607;BMP180;7865;50.918;4.510;2022-12-07T20:17:40;100888.00;;;4.30
15607;BMP180;7865;50.918;4.510;2022-12-07T20:22:42;100888.00;;;4.30
15607;BMP180;7865;50.918;4.510;2022-12-07T20:27:44;100884.00;;;4.30
15607;BMP180;7865;50.918;4.510;2022-12-07T20:32:48;100873.00;;;4.30
15607;BMP180;7865;50.918;4.510;2022-12-07T20:37:50;100871.00;;;4.30
15607;BMP180;7865;50.918;4.510;2022-12-07T20:42:52;100866.00;;;4.30
15607;BMP180;7865;50.918;4.510;2022-12-07T20:47:54;100864.00;;;4.30
15607;BMP180;7865;50.918;4.510;2022-12-07T20:52:55;100870.00;;;4.20
15607;BMP180;7865;50.918;4.510;2022-12-07T20:58:01;100857.00;;;4.20
15607;BMP180;7865;50.918;4.510;2022-12-07T21:03:03;100858.00;;;4.20
15607;BMP180;7865;50.918;4.510;2022-12-07T21:08:05;100857.00;;;4.20
15607;BMP180;7865;50.918;4.510;2022-12-07T21:13:07;100851.00;;;4.10
15607;BMP180;7865;50.918;4.510;2022-12-07T21:18:09;100844.00;;;4.20
15607;BMP180;7865;50.918;4.510;2022-12-07T21:23:11;100853.00;;;4.20
15607;BMP180;7865;50.918;4.510;2022-12-07T21:28:13;100834.00;;;4.20
15607;BMP180;7865;50.918;4.510;2022-12-07T21:33:14;100836.00;;;4.20
15607;BMP180;7865;50.918;4.510;2022-12-07T21:38:16;100829.00;;;4.20
15607;BMP180;7865;50.918;4.510;2022-12-07T21:43:18;100816.00;;;4.10
15607;BMP180;7865;50.918;4.510;2022-12-07T21:48:20;100820.00;;;4.10
15607;BMP180;7865;50.918;4.510;2022-12-07T21:53:22;100814.00;;;4.10
15607;BMP180;7865;50.918;4.510;2022-12-07T21:58:24;100825.00;;;4.10
15607;BMP180;7865;50.918;4.510;2022-12-07T22:03:26;100817.00;;;4.10
15607;BMP180;7865;50.918;4.510;2022-12-07T22:08:28;100823.00;;;4.00
15607;BMP180;7865;50.918;4.510;2022-12-07T22:13:29;100818.00;;;3.90
15607;BMP180;7865;50.918;4.510;2022-12-07T22:18:52;100821.00;;;3.70
15607;BMP180;7865;50.918;4.510;2022-12-07T22:23:54;100810.00;;;3.60
15607;BMP180;7865;50.918;4.510;2022-12-07T22:28:56;100801.00;;;3.60
15607;BMP180;7865;50.918;4.510;2022-12-07T22:33:58;100797.00;;;3.60
15607;BMP180;7865;50.918;4.510;2022-12-07T22:39:00;100794.00;;;3.60
15607;BMP180;7865;50.918;4.510;2022-12-07T22:44:04;100777.00;;;3.60
15607;BMP180;7865;50.918;4.510;2022-12-07T22:49:07;100772.00;;;3.60
15607;BMP180;7865;50.918;4.510;2022-12-07T22:54:13;100772.00;;;3.60
15607;BMP180;7865;50.918;4.510;2022-12-07T22:59:16;100766.00;;;3.60
15607;BMP180;7865;50.918;4.510;2022-12-07T23:04:18;100742.00;;;3.60
15607;BMP180;7865;50.918;4.510;2022-12-07T23:09:20;100743.00;;;3.60
15607;BMP180;7865;50.918;4.510;2022-12-07T23:14:26;100740.00;;;3.60
15607;BMP180;7865;50.918;4.510;2022-12-07T23:19:28;100750.00;;;3.60
15607;BMP180;7865;50.918;4.510;2022-12-07T23:24:30;100727.00;;;3.60
15607;BMP180;7865;50.918;4.510;2022-12-07T23:29:32;100718.00;;;3.60
15607;BMP180;7865;50.918;4.510;2022-12-07T23:34:34;100715.00;;;3.60
15607;BMP180;7865;50.918;4.510;2022-12-07T23:39:36;100717.00;;;3.50
15607;BMP180;7865;50.918;4.510;2022-12-07T23:44:37;100713.00;;;3.60
15607;BMP180;7865;50.918;4.510;2022-12-07T23:49:39;100707.00;;;3.60
15607;BMP180;7865;50.918;4.510;2022-12-07T23:54:41;100707.00;;;3.70
15607;BMP180;7865;50.918;4.510;2022-12-07T23:59:43;100701.00;;;3.70
